Time,TemperatureF,DewpointF,PressureIn,WindDirection,WindDirectionDegrees,WindSpeedMPH,WindSpeedGustMPH,Humidity,HourlyPrecipIn,Conditions,Clouds,dailyrainin,SoftwareType,DateUTC
2013-04-05 00:00:00,37.6,30.7,-100.00,West,279,0.0,10.0,76,0.00,,,0.00,meteohub,2013-04-05 04:00:00,
2013-04-05 00:01:00,38.1,32.2,-100.00,West,279,0.0,10.0,79,0.00,,,0.00,meteohub,2013-04-05 04:01:00,
2013-04-05 00:02:00,37.8,31.8,-100.00,West,279,0.0,10.0,79,0.00,,,0.00,meteohub,2013-04-05 04:02:00,
2013-04-05 00:04:00,38.5,33.1,-100.00,WNW,293,0.0,10.0,81,0.00,,,0.00,meteohub,2013-04-05 04:04:00,
2013-04-05 00:09:00,37.4,31.8,-100.00,West,262,0.0,6.0,80,0.00,,,0.00,meteohub,2013-04-05 04:09:00,
2013-04-05 00:14:00,37.8,31.5,-100.00,SSE,154,0.0,4.0,78,0.00,,,0.00,meteohub,2013-04-05 04:14:00,
2013-04-05 00:20:00,37.6,32.9,-100.00,West,261,1.0,5.0,83,0.00,,,0.00,meteohub,2013-04-05 04:20:00,
2013-04-05 00:25:00,37.8,31.8,-100.00,West,271,1.0,5.0,79,0.00,,,0.00,meteohub,2013-04-05 04:25:00,
2013-04-05 00:30:00,37.6,30.7,-100.00,South,189,1.0,8.0,76,0.00,,,0.00,meteohub,2013-04-05 04:30:00,
2013-04-05 00:35:00,37.0,31.1,-100.00,WSW,248,2.0,8.0,79,0.00,,,0.00,meteohub,2013-04-05 04:35:00,
2013-04-05 00:40:00,37.0,31.1,-100.00,West,281,4.0,9.0,79,0.00,,,0.00,meteohub,2013-04-05 04:40:00,
2013-04-05 00:46:00,36.7,29.1,-100.00,West,274,7.0,9.0,74,0.00,,,0.00,meteohub,2013-04-05 04:46:00,
2013-04-05 00:51:00,36.3,28.8,-100.00,WNW,303,1.0,10.0,74,0.00,,,0.00,meteohub,2013-04-05 04:51:00,
2013-04-05 00:56:00,36.3,29.1,-100.00,WNW,288,7.0,10.0,75,0.00,,,0.00,meteohub,2013-04-05 04:56:00,
2013-04-05 01:02:00,36.3,29.5,-100.00,West,268,1.0,10.0,76,0.00,,,0.00,meteohub,2013-04-05 05:02:00,
2013-04-05 01:07:00,36.9,30.0,-100.00,WNW,288,4.0,8.0,76,0.00,,,0.00,meteohub,2013-04-05 05:07:00,
2013-04-05 01:12:00,36.9,30.4,-100.00,SW,216,0.0,9.0,77,0.00,,,0.00,meteohub,2013-04-05 05:12:00,
2013-04-05 01:17:00,36.0,29.5,-100.00,WNW,293,4.0,10.0,77,0.00,,,0.00,meteohub,2013-04-05 05:17:00,
2013-04-05 01:23:00,36.0,29.8,-100.00,West,265,5.0,11.0,78,0.00,,,0.00,meteohub,2013-04-05 05:23:00,
2013-04-05 01:29:00,36.1,30.2,-100.00,NW,312,3.0,11.0,79,0.00,,,0.00,meteohub,2013-04-05 05:29:00,
2013-04-05 01:34:00,35.6,29.7,-100.00,WSW,254,1.0,11.0,79,0.00,,,0.00,meteohub,2013-04-05 05:34:00,
2013-04-05 01:39:00,36.1,30.2,-100.00,West,267,0.0,10.0,79,0.00,,,0.00,meteohub,2013-04-05 05:39:00,
2013-04-05 01:45:00,36.1,30.2,-100.00,West,278,7.0,10.0,79,0.00,,,0.00,meteohub,2013-04-05 05:45:00,
2013-04-05 01:50:00,36.0,30.4,-100.00,SW,226,0.0,8.0,80,0.00,,,0.00,meteohub,2013-04-05 05:50:00,
2013-04-05 01:55:00,35.8,30.2,-100.00,WSW,241,1.0,8.0,80,0.00,,,0.00,meteohub,2013-04-05 05:55:00,
2013-04-05 02:00:00,35.2,29.7,-100.00,NW,324,0.0,8.0,80,0.00,,,0.00,meteohub,2013-04-05 06:00:00,
2013-04-05 02:05:00,35.4,30.2,-100.00,West,268,3.0,9.0,81,0.00,,,0.00,meteohub,2013-04-05 06:05:00,
2013-04-05 02:10:00,35.1,29.8,-100.00,NW,309,3.0,10.0,81,0.00,,,0.00,meteohub,2013-04-05 06:10:00,
2013-04-05 02:16:00,35.2,30.0,-100.00,NNW,327,0.0,10.0,81,0.00,,,0.00,meteohub,2013-04-05 06:16:00,
2013-04-05 02:21:00,35.8,30.6,-100.00,WNW,291,3.0,10.0,81,0.00,,,0.00,meteohub,2013-04-05 06:21:00,
2013-04-05 02:26:00,35.8,30.6,-100.00,NW,307,2.0,10.0,81,0.00,,,0.00,meteohub,2013-04-05 06:26:00,
2013-04-05 02:32:00,34.9,29.7,-100.00,West,265,0.0,9.0,81,0.00,,,0.00,meteohub,2013-04-05 06:32:00,
2013-04-05 02:37:00,35.1,29.5,-100.00,West,275,0.0,8.0,80,0.00,,,0.00,meteohub,2013-04-05 06:37:00,
2013-04-05 02:42:00,34.5,28.9,-100.00,WNW,285,3.0,9.0,80,0.00,,,0.00,meteohub,2013-04-05 06:42:00,
2013-04-05 02:47:00,34.7,29.1,-100.00,West,261,0.0,9.0,80,0.00,,,0.00,meteohub,2013-04-05 06:47:00,
2013-04-05 02:52:00,35.2,29.7,-100.00,NW,310,4.0,9.0,80,0.00,,,0.00,meteohub,2013-04-05 06:52:00,
2013-04-05 02:57:00,35.2,29.7,-100.00,SSE,154,0.0,9.0,80,0.00,,,0.00,meteohub,2013-04-05 06:57:00,
2013-04-05 03:02:00,34.5,28.9,-100.00,SW,220,0.0,9.0,80,0.00,,,0.00,meteohub,2013-04-05 07:02:00,
2013-04-05 03:07:00,35.1,29.5,-100.00,SW,236,1.0,8.0,80,0.00,,,0.00,meteohub,2013-04-05 07:07:00,
2013-04-05 03:12:00,34.5,28.9,-100.00,WSW,246,0.0,8.0,80,0.00,,,0.00,meteohub,2013-04-05 07:12:00,
2013-04-05 03:17:00,34.3,28.8,-100.00,NNW,327,0.0,10.0,80,0.00,,,0.00,meteohub,2013-04-05 07:17:00,
2013-04-05 03:22:00,34.9,29.3,-100.00,SW,222,0.0,10.0,80,0.00,,,0.00,meteohub,2013-04-05 07:22:00,
2013-04-05 03:28:00,34.5,28.9,-100.00,WNW,282,3.0,10.0,80,0.00,,,0.00,meteohub,2013-04-05 07:28:00,
2013-04-05 03:33:00,34.3,28.8,-100.00,WSW,253,2.0,8.0,80,0.00,,,0.00,meteohub,2013-04-05 07:33:00,
2013-04-05 03:39:00,34.3,28.8,-100.00,WNW,291,3.0,8.0,80,0.00,,,0.00,meteohub,2013-04-05 07:39:00,
2013-04-05 03:45:00,34.9,29.3,-100.00,NNE,32,0.0,7.0,80,0.00,,,0.00,meteohub,2013-04-05 07:45:00,
2013-04-05 03:52:00,34.3,28.8,-100.00,NW,315,2.0,10.0,80,0.00,,,0.00,meteohub,2013-04-05 07:52:00,
2013-04-05 03:57:00,34.9,29.7,-100.00,WNW,300,2.0,10.0,81,0.00,,,0.00,meteohub,2013-04-05 07:57:00,
2013-04-05 04:02:00,34.2,28.6,-100.00,WNW,284,4.0,10.0,80,0.00,,,0.00,meteohub,2013-04-05 08:02:00,
2013-04-05 04:08:00,35.1,29.5,-100.00,SSW,212,2.0,10.0,80,0.00,,,0.00,meteohub,2013-04-05 08:08:00,
2013-04-05 04:13:00,34.3,28.8,-100.00,South,191,0.0,10.0,80,0.00,,,0.00,meteohub,2013-04-05 08:13:00,
2013-04-05 04:18:00,34.3,28.8,-100.00,WNW,282,6.0,10.0,80,0.00,,,0.00,meteohub,2013-04-05 08:18:00,
2013-04-05 04:23:00,34.9,29.3,-100.00,SSW,208,0.0,7.0,80,0.00,,,0.00,meteohub,2013-04-05 08:23:00,
2013-04-05 04:29:00,34.5,28.9,-100.00,WSW,248,2.0,7.0,80,0.00,,,0.00,meteohub,2013-04-05 08:29:00,
2013-04-05 04:34:00,34.3,28.6,-100.00,WSW,255,3.0,10.0,79,0.00,,,0.00,meteohub,2013-04-05 08:34:00,
2013-04-05 04:39:00,34.9,29.1,-100.00,WNW,300,3.0,10.0,79,0.00,,,0.00,meteohub,2013-04-05 08:39:00,
2013-04-05 04:45:00,34.9,28.8,-100.00,WNW,285,2.0,10.0,78,0.00,,,0.00,meteohub,2013-04-05 08:45:00,
2013-04-05 04:50:00,35.1,28.9,-100.00,WSW,243,3.0,10.0,78,0.00,,,0.00,meteohub,2013-04-05 08:50:00,
2013-04-05 04:55:00,35.1,28.9,-100.00,NW,323,4.0,10.0,78,0.00,,,0.00,meteohub,2013-04-05 08:55:00,
2013-04-05 05:00:00,34.9,28.4,-100.00,WNW,284,6.0,10.0,77,0.00,,,0.00,meteohub,2013-04-05 09:00:00,
2013-04-05 05:06:00,35.1,28.6,-100.00,WNW,284,4.0,10.0,77,0.00,,,0.00,meteohub,2013-04-05 09:06:00,
2013-04-05 05:11:00,35.2,28.8,-100.00,West,279,4.0,10.0,77,0.00,,,0.00,meteohub,2013-04-05 09:11:00,
2013-04-05 05:17:00,35.6,29.1,-100.00,WNW,300,5.0,9.0,77,0.00,,,0.00,meteohub,2013-04-05 09:17:00,
2013-04-05 05:22:00,34.9,28.4,-100.00,WNW,293,4.0,7.0,77,0.00,,,0.00,meteohub,2013-04-05 09:22:00,
2013-04-05 05:27:00,35.2,29.1,-100.00,NNW,337,0.0,7.0,78,0.00,,,0.00,meteohub,2013-04-05 09:27:00,
2013-04-05 05:32:00,34.2,28.0,-100.00,WSW,243,0.0,7.0,78,0.00,,,0.00,meteohub,2013-04-05 09:32:00,
2013-04-05 05:37:00,34.2,28.0,-100.00,West,275,0.0,7.0,78,0.00,,,0.00,meteohub,2013-04-05 09:37:00,
2013-04-05 05:42:00,34.9,28.8,-100.00,WSW,258,3.0,6.0,78,0.00,,,0.00,meteohub,2013-04-05 09:42:00,
2013-04-05 05:48:00,34.2,28.0,-100.00,SSW,202,0.0,9.0,78,0.00,,,0.00,meteohub,2013-04-05 09:48:00,
2013-04-05 05:53:00,35.1,30.9,-100.00,WSW,237,2.0,9.0,85,0.00,,,0.00,meteohub,2013-04-05 09:53:00,
2013-04-05 05:59:00,35.1,30.9,-100.00,WNW,288,5.0,9.0,85,0.00,,,0.00,meteohub,2013-04-05 09:59:00,
2013-04-05 06:04:00,35.1,30.9,-100.00,WSW,244,1.0,11.0,85,0.00,,,0.00,meteohub,2013-04-05 10:04:00,
2013-04-05 06:09:00,35.1,30.2,-100.00,WSW,255,0.0,11.0,82,0.00,,,0.00,meteohub,2013-04-05 10:09:00,
2013-04-05 06:15:00,35.1,30.4,-100.00,WSW,239,1.0,11.0,83,0.00,,,0.00,meteohub,2013-04-05 10:15:00,
2013-04-05 06:20:00,36.0,32.2,-100.00,WNW,292,0.0,9.0,86,0.00,,,0.00,meteohub,2013-04-05 10:20:00,
2013-04-05 06:25:00,36.0,33.1,-100.00,WSW,251,2.0,8.0,89,0.00,,,0.00,meteohub,2013-04-05 10:25:00,
2013-04-05 06:32:00,36.7,34.0,-100.00,North,1,1.0,8.0,90,0.00,,,0.00,meteohub,2013-04-05 10:32:00,
2013-04-05 06:37:00,36.7,34.0,-100.00,SW,227,0.0,5.0,90,0.00,,,0.00,meteohub,2013-04-05 10:37:00,
2013-04-05 06:42:00,35.2,29.7,-100.00,West,278,4.0,7.0,80,0.00,,,0.00,meteohub,2013-04-05 10:42:00,
2013-04-05 06:47:00,35.6,29.7,-100.00,SSW,202,0.0,11.0,79,0.00,,,0.00,meteohub,2013-04-05 10:47:00,
2013-04-05 06:53:00,36.0,30.0,-100.00,NW,309,1.0,11.0,79,0.00,,,0.00,meteohub,2013-04-05 10:53:00,
2013-04-05 06:58:00,35.6,29.7,-100.00,East,97,0.0,11.0,79,0.00,,,0.00,meteohub,2013-04-05 10:58:00,
2013-04-05 07:03:00,35.6,29.7,-100.00,WNW,298,6.0,7.0,79,0.00,,,0.00,meteohub,2013-04-05 11:03:00,
2013-04-05 07:09:00,35.2,29.3,-100.00,WNW,299,5.0,7.0,79,0.00,,,0.00,meteohub,2013-04-05 11:09:00,
2013-04-05 07:14:00,35.1,28.9,-100.00,WNW,282,6.0,11.0,78,0.00,,,0.00,meteohub,2013-04-05 11:14:00,
2013-04-05 07:19:00,35.2,29.1,-100.00,NW,309,2.0,11.0,78,0.00,,,0.00,meteohub,2013-04-05 11:19:00,
2013-04-05 07:25:00,35.1,28.9,-100.00,NW,319,4.0,11.0,78,0.00,,,0.00,meteohub,2013-04-05 11:25:00,
2013-04-05 07:31:00,34.7,28.6,-100.00,NW,316,3.0,8.0,78,0.00,,,0.00,meteohub,2013-04-05 11:31:00,
2013-04-05 07:36:00,36.7,30.6,-100.00,WNW,285,3.0,8.0,78,0.00,,,0.00,meteohub,2013-04-05 11:36:00,
2013-04-05 07:41:00,35.6,29.5,-100.00,NNW,327,1.0,8.0,78,0.00,,,0.00,meteohub,2013-04-05 11:41:00,
2013-04-05 07:47:00,36.0,29.8,-100.00,West,262,0.0,8.0,78,0.00,,,0.00,meteohub,2013-04-05 11:47:00,
2013-04-05 07:52:00,36.1,30.0,-100.00,WNW,285,0.0,8.0,78,0.00,,,0.00,meteohub,2013-04-05 11:52:00,
2013-04-05 07:57:00,36.0,29.5,-100.00,WSW,240,0.0,6.0,77,0.00,,,0.00,meteohub,2013-04-05 11:57:00,
2013-04-05 08:02:00,36.1,29.7,-100.00,West,278,2.0,7.0,77,0.00,,,0.00,meteohub,2013-04-05 12:02:00,
2013-04-05 08:08:00,37.0,30.2,-100.00,SW,215,2.0,7.0,76,0.00,,,0.00,meteohub,2013-04-05 12:08:00,
2013-04-05 08:13:00,36.1,29.3,-100.00,WNW,298,0.0,7.0,76,0.00,,,0.00,meteohub,2013-04-05 12:13:00,
2013-04-05 08:18:00,36.1,28.9,-100.00,WNW,298,0.0,7.0,75,0.00,,,0.00,meteohub,2013-04-05 12:18:00,
2013-04-05 08:24:00,36.9,29.7,-100.00,WSW,247,0.0,7.0,75,0.00,,,0.00,meteohub,2013-04-05 12:24:00,
2013-04-05 08:30:00,36.9,29.3,-100.00,WNW,289,0.0,9.0,74,0.00,,,0.00,meteohub,2013-04-05 12:30:00,
2013-04-05 08:35:00,37.0,29.1,-100.00,North,354,3.0,9.0,73,0.00,,,0.00,meteohub,2013-04-05 12:35:00,
2013-04-05 08:41:00,38.1,30.2,-100.00,WNW,288,3.0,6.0,73,0.00,,,0.00,meteohub,2013-04-05 12:41:00,
2013-04-05 08:46:00,38.1,29.8,-100.00,WNW,296,2.0,6.0,72,0.00,,,0.00,meteohub,2013-04-05 12:46:00,
2013-04-05 08:51:00,37.0,28.9,-100.00,WSW,255,0.0,8.0,72,0.00,,,0.00,meteohub,2013-04-05 12:51:00,
2013-04-05 08:57:00,37.8,29.1,-100.00,WNW,303,1.0,8.0,71,0.00,,,0.00,meteohub,2013-04-05 12:57:00,
2013-04-05 09:02:00,38.5,29.5,-100.00,West,267,2.0,8.0,70,0.00,,,0.00,meteohub,2013-04-05 13:02:00,
2013-04-05 09:07:00,38.1,29.1,-100.00,SW,229,0.0,7.0,70,0.00,,,0.00,meteohub,2013-04-05 13:07:00,
2013-04-05 09:12:00,38.5,29.5,-100.00,WNW,299,3.0,7.0,70,0.00,,,0.00,meteohub,2013-04-05 13:12:00,
2013-04-05 09:17:00,38.5,28.8,-100.00,West,260,2.0,8.0,68,0.00,,,0.00,meteohub,2013-04-05 13:17:00,
2013-04-05 09:22:00,38.1,28.2,-100.00,SSW,195,0.0,8.0,67,0.00,,,0.00,meteohub,2013-04-05 13:22:00,
2013-04-05 09:28:00,38.5,28.4,-100.00,West,274,4.0,8.0,67,0.00,,,0.00,meteohub,2013-04-05 13:28:00,
2013-04-05 09:33:00,38.7,28.2,-100.00,WNW,299,1.0,7.0,66,0.00,,,0.00,meteohub,2013-04-05 13:33:00,
2013-04-05 09:40:00,39.7,28.9,-100.00,West,277,2.0,7.0,65,0.00,,,0.00,meteohub,2013-04-05 13:40:00,
2013-04-05 09:46:00,39.0,28.2,-100.00,SW,225,0.0,7.0,65,0.00,,,0.00,meteohub,2013-04-05 13:46:00,
2013-04-05 09:52:00,39.0,27.9,-100.00,WNW,288,4.0,8.0,64,0.00,,,0.00,meteohub,2013-04-05 13:52:00,
2013-04-05 09:57:00,39.9,28.4,-100.00,West,270,0.0,8.0,63,0.00,,,0.00,meteohub,2013-04-05 13:57:00,
2013-04-05 10:02:00,40.5,28.9,-100.00,West,268,3.0,8.0,63,0.00,,,0.00,meteohub,2013-04-05 14:02:00,
2013-04-05 10:07:00,40.6,29.1,-100.00,WNW,285,1.0,7.0,63,0.00,,,0.00,meteohub,2013-04-05 14:07:00,
2013-04-05 10:13:00,40.3,27.9,-100.00,WSW,244,3.0,6.0,61,0.00,,,0.00,meteohub,2013-04-05 14:13:00,
2013-04-05 10:18:00,41.7,29.3,-100.00,West,278,1.0,8.0,61,0.00,,,0.00,meteohub,2013-04-05 14:18:00,
2013-04-05 10:23:00,40.6,28.6,-100.00,West,272,0.0,8.0,62,0.00,,,0.00,meteohub,2013-04-05 14:23:00,
2013-04-05 10:29:00,41.7,29.3,-100.00,West,272,0.0,8.0,61,0.00,,,0.00,meteohub,2013-04-05 14:29:00,
2013-04-05 10:35:00,41.2,28.8,-100.00,West,272,0.0,6.0,61,0.00,,,0.00,meteohub,2013-04-05 14:35:00,
2013-04-05 10:41:00,41.7,28.9,-100.00,West,272,0.0,0.0,60,0.00,,,0.00,meteohub,2013-04-05 14:41:00,
2013-04-05 10:46:00,41.0,27.9,-100.00,NW,306,5.0,6.0,59,0.00,,,0.00,meteohub,2013-04-05 14:46:00,
2013-04-05 10:51:00,41.9,27.9,-100.00,WNW,286,2.0,10.0,57,0.00,,,0.00,meteohub,2013-04-05 14:51:00,
2013-04-05 10:56:00,41.7,27.1,-100.00,West,272,6.0,10.0,56,0.00,,,0.00,meteohub,2013-04-05 14:56:00,
2013-04-05 11:02:00,42.6,27.5,-100.00,West,279,4.0,10.0,55,0.00,,,0.00,meteohub,2013-04-05 15:02:00,
2013-04-05 11:07:00,42.6,27.1,-100.00,WNW,293,3.0,9.0,54,0.00,,,0.00,meteohub,2013-04-05 15:07:00,
2013-04-05 11:12:00,42.4,26.6,-100.00,NW,322,6.0,9.0,53,0.00,,,0.00,meteohub,2013-04-05 15:12:00,
2013-04-05 11:18:00,43.5,26.6,-100.00,NNE,19,2.0,9.0,51,0.00,,,0.00,meteohub,2013-04-05 15:18:00,
2013-04-05 11:24:00,43.2,24.8,-100.00,WNW,291,4.0,9.0,48,0.00,,,0.00,meteohub,2013-04-05 15:24:00,
2013-04-05 11:29:00,45.3,25.7,-100.00,WNW,302,3.0,9.0,46,0.00,,,0.00,meteohub,2013-04-05 15:29:00,
2013-04-05 11:34:00,44.4,24.4,-100.00,NW,315,5.0,9.0,45,0.00,,,0.00,meteohub,2013-04-05 15:34:00,
2013-04-05 11:40:00,44.8,25.3,-100.00,NW,323,4.0,11.0,46,0.00,,,0.00,meteohub,2013-04-05 15:40:00,
2013-04-05 11:45:00,44.8,24.8,-100.00,NW,315,2.0,11.0,45,0.00,,,0.00,meteohub,2013-04-05 15:45:00,
2013-04-05 11:51:00,46.2,25.5,-100.00,WNW,282,2.0,9.0,44,0.00,,,0.00,meteohub,2013-04-05 15:51:00,
2013-04-05 11:56:00,45.7,24.4,-100.00,NNE,21,0.0,9.0,43,0.00,,,0.00,meteohub,2013-04-05 15:56:00,
2013-04-05 12:01:00,46.6,25.3,-100.00,WNW,293,6.0,9.0,43,0.00,,,0.00,meteohub,2013-04-05 16:01:00,
2013-04-05 12:06:00,47.1,25.2,-100.00,SSW,199,0.0,9.0,42,0.00,,,0.00,meteohub,2013-04-05 16:06:00,
2013-04-05 12:12:00,46.2,24.4,-100.00,WNW,300,3.0,8.0,42,0.00,,,0.00,meteohub,2013-04-05 16:12:00,
2013-04-05 12:17:00,47.8,25.3,-100.00,SW,233,3.0,8.0,41,0.00,,,0.00,meteohub,2013-04-05 16:17:00,
2013-04-05 12:22:00,48.0,24.8,-100.00,WSW,253,0.0,8.0,40,0.00,,,0.00,meteohub,2013-04-05 16:22:00,
2013-04-05 12:28:00,47.3,23.5,-100.00,NW,309,4.0,8.0,39,0.00,,,0.00,meteohub,2013-04-05 16:28:00,
2013-04-05 12:33:00,49.3,26.1,-100.00,NNW,343,3.0,8.0,40,0.00,,,0.00,meteohub,2013-04-05 16:33:00,
2013-04-05 12:39:00,49.5,25.5,-100.00,NW,323,5.0,6.0,39,0.00,,,0.00,meteohub,2013-04-05 16:39:00,
2013-04-05 12:44:00,48.6,24.8,-100.00,SE,130,3.0,7.0,39,0.00,,,0.00,meteohub,2013-04-05 16:44:00,
2013-04-05 12:49:00,50.0,26.6,-100.00,NE,42,0.0,7.0,40,0.00,,,0.00,meteohub,2013-04-05 16:49:00,
2013-04-05 12:54:00,50.2,25.5,-100.00,SSE,153,2.0,7.0,38,0.00,,,0.00,meteohub,2013-04-05 16:54:00,
2013-04-05 12:59:00,51.6,25.5,-100.00,NW,317,2.0,6.0,36,0.00,,,0.00,meteohub,2013-04-05 16:59:00,
2013-04-05 13:05:00,51.3,22.5,-100.00,NW,319,3.0,9.0,32,0.00,,,0.00,meteohub,2013-04-05 17:05:00,
2013-04-05 13:10:00,52.2,23.9,-100.00,NNW,329,2.0,10.0,33,0.00,,,0.00,meteohub,2013-04-05 17:10:00,
2013-04-05 13:15:00,52.5,25.0,-100.00,NW,312,3.0,10.0,34,0.00,,,0.00,meteohub,2013-04-05 17:15:00,
2013-04-05 13:21:00,53.1,31.1,-100.00,WNW,296,6.0,9.0,43,0.00,,,0.00,meteohub,2013-04-05 17:21:00,
2013-04-05 13:26:00,54.1,21.7,-100.00,WNW,288,2.0,10.0,28,0.00,,,0.00,meteohub,2013-04-05 17:26:00,
2013-04-05 13:31:00,54.1,21.7,-100.00,North,350,4.0,10.0,28,0.00,,,0.00,meteohub,2013-04-05 17:31:00,
2013-04-05 13:37:00,54.0,19.8,-100.00,NW,324,3.0,10.0,26,0.00,,,0.00,meteohub,2013-04-05 17:37:00,
2013-04-05 13:42:00,56.1,22.6,-100.00,NNW,337,5.0,9.0,27,0.00,,,0.00,meteohub,2013-04-05 17:42:00,
2013-04-05 13:47:00,54.1,19.0,-100.00,NW,323,6.0,9.0,25,0.00,,,0.00,meteohub,2013-04-05 17:47:00,
2013-04-05 13:52:00,56.1,21.7,-100.00,North,11,5.0,9.0,26,0.00,,,0.00,meteohub,2013-04-05 17:52:00,
2013-04-05 13:57:00,55.0,18.9,-100.00,SE,144,0.0,9.0,24,0.00,,,0.00,meteohub,2013-04-05 17:57:00,
2013-04-05 14:02:00,57.4,21.9,-100.00,NNE,32,6.0,9.0,25,0.00,,,0.00,meteohub,2013-04-05 18:02:00,
2013-04-05 14:07:00,56.7,20.3,-100.00,ENE,63,2.0,8.0,24,0.00,,,0.00,meteohub,2013-04-05 18:07:00,
2013-04-05 14:12:00,56.8,17.2,-100.00,NW,315,6.0,10.0,21,0.00,,,0.00,meteohub,2013-04-05 18:12:00,
2013-04-05 14:18:00,56.8,17.2,-100.00,WNW,292,6.0,10.0,21,0.00,,,0.00,meteohub,2013-04-05 18:18:00,
2013-04-05 14:23:00,57.7,16.9,-100.00,NNE,22,7.0,10.0,20,0.00,,,0.00,meteohub,2013-04-05 18:23:00,
2013-04-05 14:29:00,58.8,19.0,-100.00,WNW,298,0.0,9.0,21,0.00,,,0.00,meteohub,2013-04-05 18:29:00,
2013-04-05 14:34:00,57.9,18.1,-100.00,NE,42,3.0,10.0,21,0.00,,,0.00,meteohub,2013-04-05 18:34:00,
2013-04-05 14:39:00,59.5,19.6,-100.00,WNW,296,4.0,11.0,21,0.00,,,0.00,meteohub,2013-04-05 18:39:00,
2013-04-05 14:45:00,59.9,19.9,-100.00,NW,319,4.0,11.0,21,0.00,,,0.00,meteohub,2013-04-05 18:45:00,
2013-04-05 14:50:00,59.9,19.9,-100.00,NNW,340,5.0,11.0,21,0.00,,,0.00,meteohub,2013-04-05 18:50:00,
2013-04-05 14:55:00,58.6,18.9,-100.00,NNW,348,4.0,13.0,21,0.00,,,0.00,meteohub,2013-04-05 18:55:00,
2013-04-05 15:00:00,58.5,19.8,-100.00,North,7,4.0,13.0,22,0.00,,,0.00,meteohub,2013-04-05 19:00:00,
2013-04-05 15:06:00,59.9,21.0,-100.00,NW,309,13.0,13.0,22,0.00,,,0.00,meteohub,2013-04-05 19:06:00,
2013-04-05 15:12:00,58.6,21.0,-100.00,WNW,303,6.0,14.0,23,0.00,,,0.00,meteohub,2013-04-05 19:12:00,
2013-04-05 15:17:00,58.3,20.7,-100.00,NW,322,9.0,14.0,23,0.00,,,0.00,meteohub,2013-04-05 19:17:00,
2013-04-05 15:22:00,59.0,22.3,-100.00,NNW,334,6.0,16.0,24,0.00,,,0.00,meteohub,2013-04-05 19:22:00,
2013-04-05 15:27:00,58.6,21.9,-100.00,NW,320,9.0,16.0,24,0.00,,,0.00,meteohub,2013-04-05 19:27:00,
2013-04-05 15:32:00,58.5,21.7,-100.00,NNW,327,8.0,16.0,24,0.00,,,0.00,meteohub,2013-04-05 19:32:00,
2013-04-05 15:38:00,58.6,21.9,-100.00,NNW,341,5.0,14.0,24,0.00,,,0.00,meteohub,2013-04-05 19:38:00,
2013-04-05 15:43:00,59.0,22.3,-100.00,NNW,343,4.0,14.0,24,0.00,,,0.00,meteohub,2013-04-05 19:43:00,
2013-04-05 15:48:00,59.5,22.6,-100.00,NNW,327,6.0,14.0,24,0.00,,,0.00,meteohub,2013-04-05 19:48:00,
2013-04-05 15:54:00,58.6,21.9,-100.00,NNW,333,7.0,11.0,24,0.00,,,0.00,meteohub,2013-04-05 19:54:00,
2013-04-05 15:59:00,59.4,23.5,-100.00,NNW,341,9.0,15.0,25,0.00,,,0.00,meteohub,2013-04-05 19:59:00,
2013-04-05 16:04:00,58.3,22.6,-100.00,NNE,30,4.0,15.0,25,0.00,,,0.00,meteohub,2013-04-05 20:04:00,
2013-04-05 16:09:00,58.5,22.8,-100.00,WNW,291,6.0,15.0,25,0.00,,,0.00,meteohub,2013-04-05 20:09:00,
2013-04-05 16:15:00,58.5,19.8,-100.00,NNW,340,7.0,14.0,22,0.00,,,0.00,meteohub,2013-04-05 20:15:00,
2013-04-05 16:20:00,57.7,19.2,-100.00,North,358,6.0,14.0,22,0.00,,,0.00,meteohub,2013-04-05 20:20:00,
2013-04-05 16:25:00,59.4,19.4,-100.00,NW,305,9.0,17.0,21,0.00,,,0.00,meteohub,2013-04-05 20:25:00,
2013-04-05 16:30:00,58.3,19.6,-100.00,North,354,7.0,17.0,22,0.00,,,0.00,meteohub,2013-04-05 20:30:00,
2013-04-05 16:36:00,59.0,20.1,-100.00,NNW,330,6.0,16.0,22,0.00,,,0.00,meteohub,2013-04-05 20:36:00,
2013-04-05 16:41:00,59.0,21.2,-100.00,NNW,327,6.0,16.0,23,0.00,,,0.00,meteohub,2013-04-05 20:41:00,
2013-04-05 16:46:00,58.5,20.8,-100.00,NNW,334,7.0,13.0,23,0.00,,,0.00,meteohub,2013-04-05 20:46:00,
2013-04-05 16:51:00,56.7,19.2,-100.00,NW,310,12.0,17.0,23,0.00,,,0.00,meteohub,2013-04-05 20:51:00,
2013-04-05 16:57:00,56.3,19.9,-100.00,NW,317,6.0,17.0,24,0.00,,,0.00,meteohub,2013-04-05 20:57:00,
2013-04-05 17:02:00,56.7,20.3,-100.00,NNW,345,9.0,17.0,24,0.00,,,0.00,meteohub,2013-04-05 21:02:00,
2013-04-05 17:07:00,56.1,19.8,-100.00,NNW,330,8.0,16.0,24,0.00,,,0.00,meteohub,2013-04-05 21:07:00,
2013-04-05 17:13:00,55.2,19.0,-100.00,WNW,296,13.0,14.0,24,0.00,,,0.00,meteohub,2013-04-05 21:13:00,
2013-04-05 17:18:00,54.7,19.6,-100.00,North,358,7.0,19.0,25,0.00,,,0.00,meteohub,2013-04-05 21:18:00,
2013-04-05 17:23:00,56.1,21.7,-100.00,WNW,303,9.0,19.0,26,0.00,,,0.00,meteohub,2013-04-05 21:23:00,
2013-04-05 17:28:00,55.8,20.5,-100.00,NNW,329,6.0,19.0,25,0.00,,,0.00,meteohub,2013-04-05 21:28:00,
2013-04-05 17:34:00,55.6,21.2,-100.00,WNW,299,6.0,16.0,26,0.00,,,0.00,meteohub,2013-04-05 21:34:00,
2013-04-05 17:40:00,54.1,19.9,-100.00,WNW,302,7.0,18.0,26,0.00,,,0.00,meteohub,2013-04-05 21:40:00,
2013-04-05 17:45:00,54.0,20.7,-100.00,North,358,6.0,18.0,27,0.00,,,0.00,meteohub,2013-04-05 21:45:00,
2013-04-05 17:51:00,54.0,20.7,-100.00,WNW,300,5.0,16.0,27,0.00,,,0.00,meteohub,2013-04-05 21:51:00,
2013-04-05 17:56:00,54.0,19.8,-100.00,NNW,327,6.0,16.0,26,0.00,,,0.00,meteohub,2013-04-05 21:56:00,
2013-04-05 18:01:00,54.7,20.5,-100.00,WNW,293,10.0,17.0,26,0.00,,,0.00,meteohub,2013-04-05 22:01:00,
2013-04-05 18:06:00,53.6,20.5,-100.00,NW,316,8.0,17.0,27,0.00,,,0.00,meteohub,2013-04-05 22:06:00,
2013-04-05 18:11:00,53.1,20.8,-100.00,WNW,302,7.0,17.0,28,0.00,,,0.00,meteohub,2013-04-05 22:11:00,
2013-04-05 18:16:00,52.3,21.0,-100.00,NW,306,5.0,16.0,29,0.00,,,0.00,meteohub,2013-04-05 22:16:00,
2013-04-05 18:21:00,54.1,21.7,-100.00,NNW,341,4.0,15.0,28,0.00,,,0.00,meteohub,2013-04-05 22:21:00,
2013-04-05 18:27:00,52.0,19.9,-100.00,North,350,6.0,13.0,28,0.00,,,0.00,meteohub,2013-04-05 22:27:00,
2013-04-05 18:32:00,53.1,21.6,-100.00,NNW,333,0.0,15.0,29,0.00,,,0.00,meteohub,2013-04-05 22:32:00,
2013-04-05 18:37:00,51.6,21.2,-100.00,NNW,341,7.0,15.0,30,0.00,,,0.00,meteohub,2013-04-05 22:37:00,
2013-04-05 18:42:00,52.9,22.3,-100.00,NNW,337,9.0,15.0,30,0.00,,,0.00,meteohub,2013-04-05 22:42:00,
2013-04-05 18:47:00,51.6,21.2,-100.00,NW,305,8.0,12.0,30,0.00,,,0.00,meteohub,2013-04-05 22:47:00,
2013-04-05 18:52:00,51.1,21.6,-100.00,NNW,344,5.0,12.0,31,0.00,,,0.00,meteohub,2013-04-05 22:52:00,
2013-04-05 18:57:00,51.6,21.9,-100.00,NNW,330,10.0,12.0,31,0.00,,,0.00,meteohub,2013-04-05 22:57:00,
2013-04-05 19:02:00,51.6,21.9,-100.00,NNW,348,6.0,15.0,31,0.00,,,0.00,meteohub,2013-04-05 23:02:00,
2013-04-05 19:07:00,51.6,22.6,-100.00,WNW,292,11.0,15.0,32,0.00,,,0.00,meteohub,2013-04-05 23:07:00,
2013-04-05 19:12:00,50.7,22.6,-100.00,NE,35,2.0,15.0,33,0.00,,,0.00,meteohub,2013-04-05 23:12:00,
2013-04-05 19:18:00,51.1,23.0,-100.00,NW,307,6.0,17.0,33,0.00,,,0.00,meteohub,2013-04-05 23:18:00,
2013-04-05 19:23:00,49.5,22.3,-100.00,NW,320,7.0,17.0,34,0.00,,,0.00,meteohub,2013-04-05 23:23:00,
2013-04-05 19:28:00,49.3,22.8,-100.00,North,358,6.0,17.0,35,0.00,,,0.00,meteohub,2013-04-05 23:28:00,
2013-04-05 19:33:00,50.0,24.1,-100.00,NNW,331,10.0,16.0,36,0.00,,,0.00,meteohub,2013-04-05 23:33:00,
2013-04-05 19:39:00,49.3,23.5,-100.00,NW,320,12.0,16.0,36,0.00,,,0.00,meteohub,2013-04-05 23:39:00,
2013-04-05 19:44:00,48.9,23.7,-100.00,NNW,334,6.0,15.0,37,0.00,,,0.00,meteohub,2013-04-05 23:44:00,
2013-04-05 19:49:00,48.4,23.4,-100.00,NW,305,5.0,15.0,37,0.00,,,0.00,meteohub,2013-04-05 23:49:00,
2013-04-05 19:54:00,48.9,24.4,-100.00,NNW,341,7.0,14.0,38,0.00,,,0.00,meteohub,2013-04-05 23:54:00,
2013-04-05 20:00:00,47.1,22.8,-100.00,NNW,336,7.0,11.0,38,0.00,,,0.00,meteohub,2013-04-06 00:00:00,
2013-04-05 20:05:00,48.0,24.3,-100.00,NNW,331,9.0,20.0,39,0.00,,,0.00,meteohub,2013-04-06 00:05:00,
2013-04-05 20:11:00,48.6,24.8,-100.00,NW,323,8.0,20.0,39,0.00,,,0.00,meteohub,2013-04-06 00:11:00,
2013-04-05 20:17:00,48.6,24.8,-100.00,NW,312,6.0,16.0,39,0.00,,,0.00,meteohub,2013-04-06 00:17:00,
2013-04-05 20:22:00,47.8,24.6,-100.00,NNW,340,5.0,15.0,40,0.00,,,0.00,meteohub,2013-04-06 00:22:00,
2013-04-05 20:27:00,46.8,23.2,-100.00,NNW,348,9.0,16.0,39,0.00,,,0.00,meteohub,2013-04-06 00:27:00,
2013-04-05 20:32:00,47.1,23.4,-100.00,NW,317,6.0,16.0,39,0.00,,,0.00,meteohub,2013-04-06 00:32:00,
2013-04-05 20:38:00,46.2,23.2,-100.00,NW,309,8.0,16.0,40,0.00,,,0.00,meteohub,2013-04-06 00:38:00,
2013-04-05 20:43:00,45.9,22.8,-100.00,WNW,288,6.0,17.0,40,0.00,,,0.00,meteohub,2013-04-06 00:43:00,
2013-04-05 20:48:00,45.9,23.5,-100.00,NW,317,8.0,17.0,41,0.00,,,0.00,meteohub,2013-04-06 00:48:00,
2013-04-05 20:54:00,45.7,23.4,-100.00,NW,313,11.0,21.0,41,0.00,,,0.00,meteohub,2013-04-06 00:54:00,
2013-04-05 20:59:00,45.9,23.5,-100.00,NNW,344,13.0,21.0,41,0.00,,,0.00,meteohub,2013-04-06 00:59:00,
2013-04-05 21:04:00,44.8,22.5,-100.00,NNW,331,6.0,21.0,41,0.00,,,0.00,meteohub,2013-04-06 01:04:00,
2013-04-05 21:10:00,45.0,23.2,-100.00,NNW,336,9.0,19.0,42,0.00,,,0.00,meteohub,2013-04-06 01:10:00,
2013-04-05 21:15:00,45.3,23.5,-100.00,NNW,347,6.0,17.0,42,0.00,,,0.00,meteohub,2013-04-06 01:15:00,
2013-04-05 21:22:00,44.8,23.0,-100.00,NNW,331,7.0,14.0,42,0.00,,,0.00,meteohub,2013-04-06 01:22:00,
2013-04-05 21:27:00,44.4,23.4,-100.00,WNW,302,8.0,14.0,43,0.00,,,0.00,meteohub,2013-04-06 01:27:00,
2013-04-05 21:33:00,43.9,22.8,-100.00,NNW,334,6.0,14.0,43,0.00,,,0.00,meteohub,2013-04-06 01:33:00,
2013-04-05 21:38:00,43.5,23.0,-100.00,NNW,340,3.0,12.0,44,0.00,,,0.00,meteohub,2013-04-06 01:38:00,
2013-04-05 21:44:00,42.4,23.7,-100.00,NNE,16,5.0,11.0,47,0.00,,,0.00,meteohub,2013-04-06 01:44:00,
2013-04-05 21:49:00,43.0,25.7,-100.00,NNW,333,9.0,17.0,50,0.00,,,0.00,meteohub,2013-04-06 01:49:00,
2013-04-05 21:54:00,43.0,26.1,-100.00,North,7,4.0,17.0,51,0.00,,,0.00,meteohub,2013-04-06 01:54:00,
2013-04-05 22:00:00,42.4,26.1,-100.00,ENE,75,7.0,17.0,52,0.00,,,0.00,meteohub,2013-04-06 02:00:00,
2013-04-05 22:05:00,42.6,26.6,-100.00,North,358,4.0,16.0,53,0.00,,,0.00,meteohub,2013-04-06 02:05:00,
2013-04-05 22:10:00,42.3,26.8,-100.00,North,1,6.0,16.0,54,0.00,,,0.00,meteohub,2013-04-06 02:10:00,
2013-04-05 22:15:00,41.9,27.0,-100.00,NNW,338,5.0,14.0,55,0.00,,,0.00,meteohub,2013-04-06 02:15:00,
2013-04-05 22:21:00,41.9,27.3,-100.00,NW,319,7.0,15.0,56,0.00,,,0.00,meteohub,2013-04-06 02:21:00,
2013-04-05 22:26:00,40.6,26.6,-100.00,NNW,347,5.0,16.0,57,0.00,,,0.00,meteohub,2013-04-06 02:26:00,
2013-04-05 22:32:00,40.3,27.1,-100.00,North,11,7.0,16.0,59,0.00,,,0.00,meteohub,2013-04-06 02:32:00,
2013-04-05 22:37:00,40.3,27.5,-100.00,NNE,29,7.0,16.0,60,0.00,,,0.00,meteohub,2013-04-06 02:37:00,
2013-04-05 22:42:00,40.3,27.9,-100.00,NW,319,8.0,13.0,61,0.00,,,0.00,meteohub,2013-04-06 02:42:00,
2013-04-05 22:47:00,39.7,27.3,-100.00,NE,53,4.0,14.0,61,0.00,,,0.00,meteohub,2013-04-06 02:47:00,
2013-04-05 22:53:00,40.6,28.6,-100.00,NNW,343,6.0,14.0,62,0.00,,,0.00,meteohub,2013-04-06 02:53:00,
2013-04-05 22:58:00,39.7,27.3,-100.00,North,354,8.0,14.0,61,0.00,,,0.00,meteohub,2013-04-06 02:58:00,
2013-04-05 23:04:00,38.5,26.2,-100.00,NNW,333,9.0,15.0,61,0.00,,,0.00,meteohub,2013-04-06 03:04:00,
2013-04-05 23:09:00,38.7,26.4,-100.00,NW,326,7.0,15.0,61,0.00,,,0.00,meteohub,2013-04-06 03:09:00,
2013-04-05 23:15:00,38.7,26.4,-100.00,NW,324,7.0,15.0,61,0.00,,,0.00,meteohub,2013-04-06 03:15:00,
2013-04-05 23:20:00,38.5,26.2,-100.00,North,358,3.0,16.0,61,0.00,,,0.00,meteohub,2013-04-06 03:20:00,
2013-04-05 23:26:00,38.7,26.4,-100.00,NW,313,10.0,16.0,61,0.00,,,0.00,meteohub,2013-04-06 03:26:00,
2013-04-05 23:31:00,38.5,26.6,-100.00,NW,322,5.0,16.0,62,0.00,,,0.00,meteohub,2013-04-06 03:31:00,
2013-04-05 23:36:00,38.1,26.6,-100.00,North,4,5.0,14.0,63,0.00,,,0.00,meteohub,2013-04-06 03:36:00,
2013-04-05 23:41:00,37.8,26.6,-100.00,NNW,336,8.0,14.0,64,0.00,,,0.00,meteohub,2013-04-06 03:41:00,
2013-04-05 23:46:00,37.8,26.6,-100.00,NNW,338,6.0,14.0,64,0.00,,,0.00,meteohub,2013-04-06 03:46:00,
2013-04-05 23:52:00,37.6,27.0,-100.00,NW,326,5.0,12.0,65,0.00,,,0.00,meteohub,2013-04-06 03:52:00,
2013-04-05 23:58:00,37.0,26.4,-100.00,NW,324,7.0,12.0,65,0.00,,,0.00,meteohub,2013-04-06 03:58:00,